createdAt,value
2018-01-31T23:05:08.611Z,7.50
2018-01-31T23:06:09.659Z,7.50
2018-01-31T23:07:10.735Z,7.40
2018-01-31T23:08:11.824Z,7.60
2018-01-31T23:09:12.901Z,7.70
2018-01-31T23:10:13.972Z,7.70
2018-01-31T23:11:15.044Z,7.80
2018-01-31T23:12:22.071Z,7.90
2018-01-31T23:13:23.207Z,8.00
2018-01-31T23:14:30.359Z,8.10
2018-01-31T23:15:31.457Z,8.20
2018-01-31T23:16:32.523Z,8.30
2018-01-31T23:17:39.620Z,8.40
2018-01-31T23:18:40.693Z,8.50
2018-01-31T23:19:41.759Z,8.50
2018-01-31T23:20:42.807Z,8.60
2018-01-31T23:21:43.985Z,8.60
2018-01-31T23:22:45.045Z,8.70
2018-01-31T23:23:46.872Z,8.80
2018-01-31T23:24:48.683Z,8.90
2018-01-31T23:25:49.735Z,8.80
2018-01-31T23:26:50.798Z,8.90
2018-01-31T23:27:52.596Z,9.00
2018-01-31T23:28:53.660Z,9.00
2018-01-31T23:29:54.718Z,9.00
2018-01-31T23:30:55.795Z,9.00
2018-01-31T23:31:56.851Z,9.10
2018-01-31T23:32:57.910Z,9.10
2018-01-31T23:33:59.723Z,9.10
2018-01-31T23:35:01.192Z,9.10
2018-01-31T23:36:03.104Z,9.30
2018-01-31T23:37:05.489Z,9.10
2018-01-31T23:38:06.874Z,9.20
2018-01-31T23:39:09.660Z,9.30
2018-01-31T23:40:12.455Z,9.20
2018-01-31T23:41:14.479Z,9.20
2018-01-31T23:42:15.788Z,9.30
2018-01-31T23:43:17.157Z,9.20
2018-01-31T23:44:18.272Z,9.20
2018-01-31T23:45:20.095Z,9.30
2018-01-31T23:46:21.158Z,9.30
2018-01-31T23:47:22.251Z,9.30
2018-01-31T23:48:23.311Z,9.30
2018-01-31T23:49:24.379Z,9.30
2018-01-31T23:50:25.455Z,9.30
2018-01-31T23:51:26.572Z,9.30
2018-01-31T23:52:27.652Z,9.30
2018-01-31T23:53:28.716Z,9.30
2018-01-31T23:54:29.801Z,9.30
2018-01-31T23:55:30.869Z,9.30
2018-01-31T23:56:31.922Z,9.30
2018-01-31T23:57:32.974Z,9.30
2018-01-31T23:58:34.035Z,9.30
2018-01-31T23:59:35.099Z,9.40
